Oran, Iowa
Current Conditions -  °F | °C
As of 3:15 PM on Wednesday 26 Nov 2014 (Local Time) from KOLZ Reporting Station
Unknown Precip Unknown Precip  
Wind Chill: 17°   Ceiling: Unl
Heat Index: 28°   Visibility: 4mi
Dew Point: 25°   Wind: 14mph
Humidity: 86%   Direction: 30°NNE
Pressure: 30.12"   Gusts: NA
Location:  42.7°N, 92.07°W
Report Text: KOLZ 262115Z AUTO 03012KT 4SM -UP CLR M02/M04 A3012 RMK AO2
Loading
Personal Weather Stations






























Interactive Weather Map New forecast layout! Learn more

10-Day Weather Forecast

Advertisements
Track Severe Weather on mobile